createdAt,value
2022-08-08T00:06:04.049Z,19.48
2022-08-08T00:16:12.278Z,22.20
2022-08-08T00:26:26.372Z,18.65
2022-08-08T00:36:43.089Z,21.20
2022-08-08T00:47:23.639Z,16.63
2022-08-08T00:58:12.706Z,19.77
2022-08-08T01:08:53.250Z,18.90
2022-08-08T01:20:01.686Z,21.45
2022-08-08T01:30:42.137Z,22.10
2022-08-08T01:40:59.972Z,22.90
2022-08-08T01:51:32.174Z,19.77
2022-08-08T02:02:08.250Z,25.73
2022-08-08T02:12:27.345Z,31.60
2022-08-08T02:22:52.829Z,27.13
2022-08-08T02:33:15.397Z,24.08
2022-08-08T02:44:37.810Z,26.05
2022-08-08T02:54:45.596Z,27.35
2022-08-08T03:05:45.275Z,26.98
2022-08-08T03:26:12.722Z,27.70
2022-08-08T03:36:19.870Z,18.27
2022-08-08T03:46:44.794Z,24.90
2022-08-08T03:56:52.388Z,29.45
2022-08-08T04:07:00.902Z,27.48
2022-08-08T04:17:22.935Z,34.85
2022-08-08T04:28:03.137Z,25.27
2022-08-08T04:37:58.799Z,30.83
2022-08-08T04:48:16.990Z,33.63
2022-08-08T04:58:27.944Z,28.20
2022-08-08T05:08:34.530Z,29.70
2022-08-08T05:18:40.259Z,35.72
2022-08-08T05:28:57.077Z,31.20
2022-08-08T05:39:09.604Z,27.98
2022-08-08T05:59:59.465Z,22.60
2022-08-08T06:10:01.312Z,15.55
2022-08-08T06:20:11.705Z,16.05
2022-08-08T06:30:20.389Z,18.45
2022-08-08T06:40:36.912Z,17.92
2022-08-08T06:50:47.504Z,16.98
2022-08-08T07:00:57.902Z,13.88
2022-08-08T07:11:07.548Z,22.00
2022-08-08T07:21:19.375Z,16.40
2022-08-08T07:31:30.162Z,9.60
2022-08-08T07:42:03.870Z,12.02
2022-08-08T07:52:09.011Z,11.80
2022-08-08T08:02:32.910Z,11.07
2022-08-08T08:12:48.365Z,10.27
2022-08-08T08:22:53.711Z,5.88
2022-08-08T08:32:59.257Z,11.17
2022-08-08T08:43:07.824Z,8.00
2022-08-08T08:53:54.617Z,9.55
2022-08-08T09:03:50.844Z,9.35
2022-08-08T09:14:02.882Z,8.83
2022-08-08T09:24:08.245Z,8.73
2022-08-08T09:34:32.743Z,5.45
2022-08-08T09:44:56.106Z,7.20
2022-08-08T09:55:02.806Z,5.32
2022-08-08T10:05:14.637Z,14.63
2022-08-08T10:15:20.385Z,4.82
2022-08-08T10:25:26.108Z,4.88
2022-08-08T10:36:08.101Z,4.20
2022-08-08T10:46:29.867Z,4.95
2022-08-08T10:56:43.325Z,3.25
2022-08-08T11:06:49.421Z,5.63
2022-08-08T11:16:54.857Z,5.75
2022-08-08T11:27:19.921Z,6.00
2022-08-08T11:38:35.087Z,1.77
2022-08-08T11:48:04.590Z,2.10
2022-08-08T11:58:14.667Z,2.88
2022-08-08T12:08:18.981Z,3.03
2022-08-08T12:18:25.377Z,2.55
2022-08-08T12:28:28.643Z,3.30
2022-08-08T12:38:48.219Z,2.35
2022-08-08T12:49:21.955Z,2.42
2022-08-08T12:59:36.643Z,3.80
2022-08-08T13:10:04.551Z,3.97
2022-08-08T13:20:15.497Z,3.17
2022-08-08T13:30:26.365Z,4.18
2022-08-08T13:40:32.759Z,4.00
2022-08-08T13:50:43.230Z,3.15
2022-08-08T14:00:54.924Z,2.05
2022-08-08T14:10:59.276Z,3.42
2022-08-08T14:21:07.884Z,5.22
2022-08-08T14:31:20.254Z,5.45
2022-08-08T14:41:53.981Z,5.10
2022-08-08T14:51:53.557Z,1.58
2022-08-08T15:01:58.112Z,3.15
2022-08-08T15:12:02.265Z,5.88
2022-08-08T15:22:07.978Z,2.85
2022-08-08T15:32:20.769Z,2.78
2022-08-08T15:42:32.533Z,4.70
2022-08-08T15:52:36.414Z,4.97
2022-08-08T16:02:51.272Z,6.07
2022-08-08T16:13:11.362Z,5.32
2022-08-08T16:23:20.047Z,8.68
2022-08-08T16:33:29.674Z,3.60
2022-08-08T16:43:49.080Z,5.07
2022-08-08T16:55:01.830Z,4.00
2022-08-08T17:04:18.718Z,9.07
2022-08-08T17:14:27.153Z,7.95
2022-08-08T17:24:33.540Z,4.70
2022-08-08T17:35:04.366Z,7.00
2022-08-08T17:45:02.281Z,3.65
2022-08-08T17:55:22.432Z,10.55
2022-08-08T18:05:44.041Z,3.85
2022-08-08T18:15:59.859Z,4.07
2022-08-08T18:26:08.949Z,9.10
2022-08-08T18:36:23.015Z,2.85
2022-08-08T18:46:54.944Z,4.25
2022-08-08T18:56:55.547Z,4.85
2022-08-08T19:07:14.997Z,3.67
2022-08-08T19:17:53.070Z,6.78
2022-08-08T19:27:55.983Z,7.53
2022-08-08T19:37:59.877Z,6.60
2022-08-08T19:48:28.056Z,4.75
2022-08-08T19:58:29.760Z,5.15
2022-08-08T20:08:35.825Z,7.70
2022-08-08T20:18:52.643Z,8.02
2022-08-08T20:28:58.049Z,5.28
2022-08-08T20:39:02.488Z,4.85
2022-08-08T20:49:07.345Z,4.65
2022-08-08T20:59:17.039Z,9.20
2022-08-08T21:09:31.786Z,5.53
2022-08-08T21:19:48.337Z,9.27
2022-08-08T21:30:03.870Z,13.18
2022-08-08T21:40:10.242Z,6.97
2022-08-08T21:50:16.892Z,11.77
2022-08-08T22:00:26.131Z,10.23
2022-08-08T22:10:32.665Z,7.35
2022-08-08T22:20:35.844Z,11.25
2022-08-08T22:30:43.284Z,8.55
2022-08-08T22:40:54.163Z,10.10
2022-08-08T23:01:26.555Z,8.88
2022-08-08T23:12:27.531Z,9.00
2022-08-08T23:21:59.222Z,12.93
2022-08-08T23:32:05.357Z,14.27
2022-08-08T23:42:08.833Z,15.05
2022-08-08T23:52:16.073Z,21.55
